Tiempo atmosférico en la estación meteorológica de Aguilar de la Frontera, Córdoba (305 m.)

Fecha
DESCASC
Temp. máxima en grados centígrados (hora)
DESCASC
Temp. mínima en grados centígrados (hora)
DESCASC
Temp. media en grados centígrados
DESCASC
Racha de viento máxima en m/sg (hora)
DESCASC
Velocidad máxima media en intervalos de 10 minutos(hora)
DESCASC
Precipitaciones diarias en mm
DESCASC
Precipitaciones de 00:00 a 06:00 en mm
DESCASC
Precipitaciones de 06:00 a 12:00 en mm
DESCASC
Precipitaciones de 12:00 a 18:00 en mm
DESCASC
Precipitaciones de 18:00 a 24:00 en mm
DESCASC
24-09-2017 31.9 (17:20) 16 (08:30) 23.9 7.78 (00:50) 5 (00:50) 0 0 0 0 0
23-09-2017 30.4 (16:50) 16.1 (08:20) 23.3 8.33 (23:50) 5.28 (23:50) 0 0 0 0 0
22-09-2017 31.2 (16:20) 16.5 (08:30) 23.9 9.44 (22:10) 5.83 (22:10) 0 0 0 0 0
21-09-2017 31.8 (17:20) 14.2 (00:00) 23 7.78 (15:20) 4.17 (06:50) 0 0 0 0 0
20-09-2017 31.5 (18:00) 16.1 (00:00) 23.8 7.78 (16:40) 5 (06:50) 0 0 0 0 0
19-09-2017 30.4 (17:40) 12.6 (00:00) 21.5 6.11 (17:20) 3.61 (23:10) 0 0 0 0 0
18-09-2017 28.6 (18:00) 10.5 (00:00) 19.6 8.61 (18:20) 5.28 (18:30) 0 0 0 0 0
17-09-2017 28.5 (17:40) 11 (00:00) 19.8 6.67 (18:20) 4.44 (18:30) 0 0 0 0 0
16-09-2017 26.6 (17:00) 10.9 (00:00) 18.8 9.44 (15:00) 6.39 (15:00) 0 0 0 0 0
15-09-2017 27.8 (17:10) 16.9 (00:00) 22.3 10.83 (15:20) 6.67 (15:50) 0 0 0 0 0
14-09-2017 32.7 (18:00) 17.4 (00:00) 25.1 8.33 (19:10) 6.11 (19:40) 0 0 0 0 0
13-09-2017 34.8 (17:10) 19.2 (00:00) 27 9.44 (22:10) 5.56 (22:00) 0 0 0 0 0
12-09-2017 35.3 (17:30) 15 (00:00) 25.1 5 (14:00) 3.89 (18:20) 0 0 0 0 0
11-09-2017 34.4 (18:30) 13.2 (00:00) 23.8 4.17 (02:30) 3.06 (02:20) 0 0 0 0 0
10-09-2017 28.6 (19:10) 11.3 (00:00) 20 7.78 (15:30) 4.17 (00:30) 0 0 0 0 0
09-09-2017 26.9 (17:10) 14.9 (00:00) 20.9 12.22 (21:00) 7.22 (18:20) 0 0 0 0 0
08-09-2017 35.3 (17:40) 20.2 (00:00) 27.8 6.11 (08:10) 4.44 (08:10) 0 0 0 0 0
07-09-2017 35.8 (17:50) 21.6 (00:00) 28.7 7.22 (06:30) 4.72 (06:20) 0 0 0 0 0
06-09-2017 37 (17:30) 20.8 (00:00) 28.9 8.61 (22:20) 6.11 (22:10) 0 0 0 0 0
05-09-2017 34.1 (18:00) 18.4 (00:00) 26.2 6.67 (22:20) 4.44 (22:30) 0 0 0 0 0
04-09-2017 33.4 (18:30) 17.8 (00:00) 25.6 7.22 (16:10) 5 (16:10) 0 0 0 0 0
03-09-2017 33.6 (17:00) 19.5 (00:00) 26.5 7.78 (01:10) 5 (01:10) 0 0 0 0 0
02-09-2017 31.9 (16:20) 19.5 (00:00) 25.7 9.72 (22:30) 5.56 (20:50) 0 0 0 0 0
01-09-2017 33.6 (18:10) 19.7 (00:00) 26.6 8.06 (21:20) 5.56 (22:00) 0 0 0 0 0
31-08-2017 32.3 (18:40) 17.9 (00:00) 25.1 10 (13:30) 4.72 (23:30) 0 0 0 0 0
30-08-2017 28.2 (18:50) 17.3 (00:00) 22.8 6.39 (20:30) 4.44 (22:30) 0 0 0 0 0
29-08-2017 25.8 (17:00) 16.3 (00:00) 21 12.22 (19:10) 7.5 (19:20) 8.4 0 0 0 8.4
28-08-2017 23.5 (00:00) 18.1 (00:00) 20.8 7.22 (01:40) 4.44 (01:40) 21.6 0 12.2 9.4 0
27-08-2017 31.2 (17:30) 22.4 (00:00) 26.8 13.89 (06:20) 7.5 (06:20) 1 0 0.2 0.8 0
26-08-2017 36.8 (18:10) 22.9 (00:00) 29.8 9.72 (23:59) 5.83 (23:30) 0 0 0 0 0

Gráficas

Temp. máximas Temp. mínimas Temp. medias Precipitaciones Rachas de viento máximas Velocidades máximas media en intervalos de 10 minutos

Datos horarios

Fecha y hora oficial Temperatura (ºC) Velocidad del viento (km/h) Dirección del viento Racha (km/h) Dirección de racha Precipitación (mm) Presión (hPa) Tendencia (hPa) Humedad (%)
2017-09-24 23:00:00 22.9 14 Sudeste 21 Sudeste 0 -- -- 53
2017-09-24 22:00:00 23.9 14 Sudeste 19 Sudeste 0 -- -- 49
2017-09-24 21:00:00 25.5 9 Sudeste 14 Sudeste 0 -- -- 43
2017-09-24 20:00:00 28.7 6 Sur 19 Sudoeste 0 -- -- 31
2017-09-24 19:00:00 30.6 13 Sudoeste 20 Sudoeste 0 -- -- 33
2017-09-24 18:00:00 31.5 10 Oeste 22 Oeste 0 -- -- 32
2017-09-24 17:00:00 31.4 8 Sudoeste 19 Sur 0 -- -- 30
2017-09-24 16:00:00 31.1 7 Sudoeste 17 Sur 0 -- -- 31
2017-09-24 15:00:00 29.1 6 Oeste 11 Oeste 0 -- -- 37
2017-09-24 14:00:00 27.7 6 Oeste 12 Oeste 0 -- -- 42
2017-09-24 13:00:00 26.1 5 Noroeste 11 Noroeste 0 -- -- 47
2017-09-24 12:00:00 24.7 4 Noroeste 8 Noroeste 0 -- -- 52
2017-09-24 11:00:00 23.2 4 Noroeste 8 Noroeste 0 -- -- 56
2017-09-24 10:00:00 22 4 Sudeste 8 Sudeste 0 -- -- 60
2017-09-24 09:00:00 17.8 4 Este 9 Este 0 -- -- 76
2017-09-24 08:00:00 16.5 4 Este 15 Sudeste 0 -- -- 78
2017-09-24 07:00:00 17.5 11 Sudeste 16 Sudeste 0 -- -- 77
2017-09-24 06:00:00 17.6 11 Sudeste 17 Sudeste 0 -- -- 78
2017-09-24 05:00:00 18.1 13 Sudeste 18 Sudeste 0 -- -- 77
2017-09-24 04:00:00 19 13 Sudeste 21 Sudeste 0 -- -- 74
2017-09-24 03:00:00 19.2 12 Sudeste 21 Sudeste 0 -- -- 74
2017-09-24 02:00:00 19.8 16 Sudeste 23 Sudeste 0 -- -- 71
2017-09-24 01:00:00 20.4 15 Sur 28 Sudeste 0 -- -- 67
2017-09-24 00:00:00 21.1 18 Sudeste 30 Sudeste 0 -- -- 63
2017-09-23 23:00:00 22 18 Sudeste 28 Sudeste 0 -- -- 58
2017-09-23 22:00:00 23.2 15 Sudeste 22 Sudeste 0 -- -- 52
2017-09-23 21:00:00 24.9 11 Sudeste 15 Sudeste 0 -- -- 46
2017-09-23 20:00:00 27.6 6 Sur 18 Sudoeste 0 -- -- 39
2017-09-23 19:00:00 29.6 8 Sur 20 Sudoeste 0 -- -- 37
2017-09-23 18:00:00 30.2 12 Sudoeste 19 Sudoeste 0 -- -- 36
2017-09-23 17:00:00 30.3 9 Oeste 17 Sudoeste 0 -- -- 35
2017-09-23 16:00:00 30.1 8 Sudoeste 18 Sur 0 -- -- 34
2017-09-23 15:00:00 29.5 7 Oeste 15 Sudeste 0 -- -- 36
2017-09-23 14:00:00 28.4 7 Oeste 22 Sur 0 -- -- 36
2017-09-23 13:00:00 26.8 7 Sudeste 19 Sudeste 0 -- -- 44
2017-09-23 12:00:00 25.8 12 Este 21 Este 0 -- -- 47
2017-09-23 11:00:00 24.1 10 Este 17 Sudeste 0 -- -- 57
2017-09-23 10:00:00 21.5 6 Este 13 Este 0 -- -- 67
2017-09-23 09:00:00 17.4 9 Sudeste 13 Este 0 -- -- 81
2017-09-23 08:00:00 16.4 3 Sudeste 10 Este 0 -- -- 82
2017-09-23 07:00:00 16.2 3 Nordeste 8 Nordeste 0 -- -- 84
2017-09-23 06:00:00 16.5 6 Este 9 Sudeste 0 -- -- 85
2017-09-23 05:00:00 17.5 8 Sudeste 9 Sudeste 0 -- -- 83
2017-09-23 04:00:00 18.1 9 Sudeste 15 Sudeste 0 -- -- 81
2017-09-23 03:00:00 19.8 11 Sudeste 21 Sudeste 0 -- -- 77
2017-09-23 02:00:00 20.1 13 Sudeste 23 Sudeste 0 -- -- 74
2017-09-23 01:00:00 20.4 12 Sur 27 Sur 0 -- -- 71
2017-09-23 00:00:00 20.8 15 Sur 31 Sur 0 -- -- 70
2017-09-22 23:00:00 21.4 21 Sur 34 Sur 0 -- -- 64
2017-09-22 22:00:00 22.7 20 Sur 30 Sur 0 -- -- 53
2017-09-22 21:00:00 24.3 15 Sur 21 Sur 0 -- -- 41
2017-09-22 20:00:00 27.5 9 Sur 16 Sur 0 -- -- 35
2017-09-22 19:00:00 30.1 7 Sudoeste 17 Sudoeste 0 -- -- 32
2017-09-22 18:00:00 30.3 8 Sur 21 Sudeste 0 -- -- 30
2017-09-22 17:00:00 30.9 10 Sur 20 Sudoeste 0 -- -- 28
2017-09-22 16:00:00 31 6 Sur 21 Sudoeste 0 -- -- 23
2017-09-22 15:00:00 30.4 8 Sur 23 Sudoeste 0 -- -- 24
2017-09-22 14:00:00 29.5 7 Sudoeste 14 Sur 0 -- -- 25
2017-09-22 13:00:00 27.3 7 Oeste 16 Sudoeste 0 -- -- 30
2017-09-22 12:00:00 25.2 7 Sudoeste 14 Sur 0 -- -- 31
2017-09-22 11:00:00 23.9 10 Sur 17 Sur 0 -- -- 35
2017-09-22 10:00:00 21.6 10 Sudeste 17 Sudeste 0 -- -- 40
2017-09-22 09:00:00 18.2 12 Sudeste 18 Sudeste 0 -- -- 47
2017-09-22 08:00:00 17.3 15 Sudeste 19 Sudeste 0 -- -- 48
2017-09-22 07:00:00 17.5 15 Sudeste 18 Sudeste 0 -- -- 46
2017-09-22 06:00:00 17.9 15 Sudeste 19 Sudeste 0 -- -- 45
2017-09-22 05:00:00 18.3 14 Sudeste 17 Sudeste 0 -- -- 45
2017-09-22 04:00:00 18.1 10 Sudeste 17 Sudeste 0 -- -- 44
2017-09-22 03:00:00 19 13 Sudeste 18 Sudeste 0 -- -- 42
2017-09-22 02:00:00 20 15 Sudeste 18 Sudeste 0 -- -- 41
2017-09-22 01:00:00 21.3 9 Sudeste 16 Sur 0 -- -- 42
2017-09-22 00:00:00 22.4 9 Sur 15 Sur 0 -- -- 40
2017-09-21 23:00:00 23.4 9 Sur 23 Sur 0 -- -- 32
2017-09-21 22:00:00 24.2 13 Sur 19 Sur 0 -- -- 30
2017-09-21 21:00:00 25 9 Sur 16 Sur 0 -- -- 29
2017-09-21 20:00:00 28.4 4 Sudoeste 14 Sudoeste 0 -- -- 25
2017-09-21 19:00:00 30.8 4 Sur 17 Sur 0 -- -- 22
2017-09-21 18:00:00 31.1 12 Sudeste 20 Sur 0 -- -- 22
2017-09-21 17:00:00 31.6 10 Sudoeste 24 Sudoeste 0 -- -- 21
2017-09-21 16:00:00 30.9 9 Sudoeste 28 Sudoeste 0 -- -- 22
2017-09-21 15:00:00 30.4 11 Sudoeste 23 Sudeste 0 -- -- 23
2017-09-21 14:00:00 29.6 8 Sudoeste 20 Sur 0 -- -- 23
2017-09-21 13:00:00 27.5 5 Noroeste 10 Noroeste 0 -- -- 26
2017-09-21 12:00:00 25.9 5 Este 14 Sudeste 0 -- -- 29
2017-09-21 11:00:00 23.8 10 Sudeste 16 Sudeste 0 -- -- 33
2017-09-21 10:00:00 20.6 7 Sudeste 14 Sudeste 0 -- -- 40
2017-09-21 09:00:00 17.1 2 Sudeste 10 Este 0 -- -- 49
2017-09-21 08:00:00 14.5 5 Este 15 Sudeste 0 -- -- 57
2017-09-21 07:00:00 16.4 14 Sudeste 18 Sudeste 0 -- -- 51
2017-09-21 06:00:00 15.1 0 Calma 14 Sudeste 0 -- -- 55
2017-09-21 05:00:00 16.2 10 Sudeste 12 Sudeste 0 -- -- 51
2017-09-21 04:00:00 16.9 6 Sudeste 14 Sudeste 0 -- -- 49
2017-09-21 03:00:00 17.9 8 Sudeste 13 Sudeste 0 -- -- 48
2017-09-21 02:00:00 18.8 0 Calma 18 Sudeste 0 -- -- 45
2017-09-21 01:00:00 20.5 10 Sudeste 19 Sudeste 0 -- -- 41
2017-09-21 00:00:00 21.2 13 Sur 24 Sudeste 0 -- -- 39
2017-09-20 23:00:00 22.7 14 Sudeste 25 Sudeste 0 -- -- 35
2017-09-20 22:00:00 23.4 15 Sudeste 24 Sudeste 0 -- -- 34
2017-09-20 21:00:00 24.6 13 Sudeste 18 Sur 0 -- -- 29
2017-09-20 20:00:00 27.1 8 Sur 21 Sudoeste 0 -- -- 25
2017-09-20 19:00:00 30 15 Sur 22 Sur 0 -- -- 21
2017-09-20 18:00:00 31.5 10 Sudoeste 22 Sudoeste 0 -- -- 19
2017-09-20 17:00:00 31 15 Sur 28 Sur 0 -- -- 23
2017-09-20 16:00:00 31.1 9 Sudoeste 21 Sudoeste 0 -- -- 25
2017-09-20 15:00:00 30.4 11 Sudoeste 23 Sudoeste 0 -- -- 27
2017-09-20 14:00:00 30 7 Sur 19 Sur 0 -- -- 29
2017-09-20 13:00:00 27.9 11 Sur 17 Sudoeste 0 -- -- 32
2017-09-20 12:00:00 26.8 9 Sur 17 Sudeste 0 -- -- 36
2017-09-20 11:00:00 24.7 6 Sudeste 14 Sudeste 0 -- -- 40
2017-09-20 10:00:00 21.6 5 Este 13 Este 0 -- -- 47
2017-09-20 09:00:00 18 5 Sudeste 14 Este 0 -- -- 58
2017-09-20 08:00:00 16.6 12 Sudeste 22 Sudeste 0 -- -- 61
2017-09-20 07:00:00 16.6 17 Sudeste 23 Sudeste 0 -- -- 58
2017-09-20 06:00:00 16.9 16 Sudeste 21 Sudeste 0 -- -- 56
2017-09-20 05:00:00 17.5 16 Sudeste 21 Sudeste 0 -- -- 53
2017-09-20 04:00:00 18.1 17 Sudeste 21 Sudeste 0 -- -- 52
2017-09-20 03:00:00 18.2 16 Sudeste 18 Sudeste 0 -- -- 51
2017-09-20 02:00:00 18.7 14 Sudeste 16 Sudeste 0 -- -- 54
2017-09-20 01:00:00 18.5 0 Calma 6 Sudoeste 0 -- -- 55
2017-09-20 00:00:00 20.6 5 Sudoeste 20 Sur 0 -- -- 48
2017-09-19 23:00:00 19.5 9 Sudeste 14 Sudeste 0 -- -- 44
2017-09-19 22:00:00 20.1 0 Calma 3 Sur 0 -- -- 43
2017-09-19 21:00:00 23 2 Sur 5 Sur 0 -- -- 38
2017-09-19 20:00:00 29.4 2 Oeste 7 Noroeste 0 -- -- 27
2017-09-19 19:00:00 30.1 3 Noroeste 14 Oeste 0 -- -- 27
2017-09-19 18:00:00 30.2 5 Oeste 22 Oeste 0 -- -- 27
2017-09-19 17:00:00 29.8 8 Noroeste 20 Oeste 0 -- -- 27
2017-09-19 16:00:00 29.6 13 Oeste 19 Oeste 0 -- -- 29
2017-09-19 15:00:00 28.9 10 Oeste 18 Oeste 0 -- -- 31
2017-09-19 14:00:00 27.8 7 Oeste 17 Norte 0 -- -- 35
2017-09-19 13:00:00 26 4 Noroeste 12 Noroeste 0 -- -- 42
2017-09-19 12:00:00 24 4 Norte 10 Norte 0 -- -- 47
2017-09-19 11:00:00 21.9 3 Noroeste 6 Oeste 0 -- -- 55
2017-09-19 10:00:00 20.4 2 Este 8 Este 0 -- -- 62
2017-09-19 09:00:00 15.8 4 Sudeste 9 Este 0 -- -- 79
2017-09-19 08:00:00 12.8 5 Este 9 Este 0 -- -- 86
2017-09-19 07:00:00 13.1 3 Este 8 Sudeste 0 -- -- 84
2017-09-19 06:00:00 13.7 5 Sudeste 8 Sudeste 0 -- -- 83
2017-09-19 05:00:00 13.9 0 Calma 10 Sudeste 0 -- -- 80
2017-09-19 04:00:00 14.8 3 Sudeste 9 Sudeste 0 -- -- 77
2017-09-19 03:00:00 15.9 7 Sudeste 10 Este 0 -- -- 74
2017-09-19 02:00:00 17.2 4 Sur 13 Sudeste 0 -- -- 69
2017-09-19 01:00:00 17.8 7 Sudeste 14 Sudeste 0 -- -- 69
2017-09-19 00:00:00 19.4 3 Oeste 15 Oeste 0 -- -- 65
2017-09-18 23:00:00 20.8 11 Oeste 27 Oeste 0 -- -- 61
2017-09-18 22:00:00 22.3 10 Sudoeste 24 Sudoeste 0 -- -- 53
2017-09-18 21:00:00 24.1 18 Sudoeste 27 Sudoeste 0 -- -- 42
2017-09-18 20:00:00 26.2 10 Sudoeste 26 Oeste 0 -- -- 33
2017-09-18 19:00:00 27.9 13 Oeste 31 Oeste 0 -- -- 29
2017-09-18 18:00:00 28.6 13 Oeste 27 Oeste 0 -- -- 29
2017-09-18 17:00:00 28.4 12 Oeste 24 Oeste 0 -- -- 28
2017-09-18 16:00:00 27.6 8 Sudoeste 24 Sudoeste 0 -- -- 25
2017-09-18 15:00:00 26.5 14 Oeste 27 Oeste 0 -- -- 27
2017-09-18 14:00:00 25.2 13 Oeste 24 Sudoeste 0 -- -- 31
2017-09-18 13:00:00 23.3 10 Oeste 18 Oeste 0 -- -- 36
2017-09-18 12:00:00 21 7 Oeste 13 Oeste 0 -- -- 44
2017-09-18 11:00:00 19.5 8 Oeste 18 Sudoeste 0 -- -- 50
2017-09-18 10:00:00 17.9 12 Sudoeste 18 Sudoeste 0 -- -- 56
2017-09-18 09:00:00 14.1 2 Sur 4 Sudeste 0 -- -- 61
2017-09-18 08:00:00 10.7 2 Sur 5 Sur 0 -- -- 64
2017-09-18 07:00:00 11.7 0 Calma 9 Sudeste 0 -- -- 59
2017-09-18 06:00:00 11.6 0 Calma 4 Sur 0 -- -- 60
2017-09-18 05:00:00 12.9 0 Calma 11 Sudeste 0 -- -- 56
2017-09-18 04:00:00 13.3 2 Sudeste 10 Sudeste 0 -- -- 55
2017-09-18 03:00:00 15.2 7 Sudeste 11 Sudeste 0 -- -- 51
2017-09-18 02:00:00 16.5 3 Sudeste 9 Oeste 0 -- -- 49
2017-09-18 01:00:00 17.5 4 Oeste 18 Sudoeste 0 -- -- 50
2017-09-18 00:00:00 18.8 10 Sudoeste 17 Oeste 0 -- -- 45
2017-09-17 23:00:00 19.9 10 Oeste 17 Oeste 0 -- -- 42
2017-09-17 22:00:00 21.2 4 Oeste 9 Sudoeste 0 -- -- 40
2017-09-17 21:00:00 22.7 7 Sudoeste 22 Oeste 0 -- -- 34
2017-09-17 20:00:00 25.8 13 Oeste 22 Oeste 0 -- -- 31
2017-09-17 19:00:00 27.7 10 Oeste 24 Oeste 0 -- -- 26
2017-09-17 18:00:00 28.4 9 Oeste 23 Oeste 0 -- -- 23
2017-09-17 17:00:00 28 8 Oeste 22 Sudoeste 0 -- -- 24
2017-09-17 16:00:00 27.6 11 Oeste 21 Oeste 0 -- -- 26
2017-09-17 15:00:00 27.4 8 Oeste 18 Oeste 0 -- -- 26
2017-09-17 14:00:00 25.6 4 Norte 13 Noroeste 0 -- -- 31
2017-09-17 13:00:00 24.2 5 Oeste 12 Oeste 0 -- -- 34
2017-09-17 12:00:00 21.8 4 Norte 10 Noroeste 0 -- -- 42
2017-09-17 11:00:00 20.3 5 Noroeste 8 Noroeste 0 -- -- 49
2017-09-17 10:00:00 18.9 2 Este 8 Este 0 -- -- 50
2017-09-17 09:00:00 14.2 2 Este 9 Este 0 -- -- 64
2017-09-17 08:00:00 11.2 5 Este 10 Sudeste 0 -- -- 77
2017-09-17 07:00:00 11.3 5 Sudeste 8 Este 0 -- -- 75
2017-09-17 06:00:00 12.2 5 Este 14 Sudeste 0 -- -- 74
2017-09-17 05:00:00 12.7 9 Sudeste 11 Sudeste 0 -- -- 74
2017-09-17 04:00:00 12 5 Sudeste 12 Sudeste 0 -- -- 76
2017-09-17 03:00:00 13 9 Sudeste 12 Sudeste 0 -- -- 73
2017-09-17 02:00:00 14 8 Sudeste 10 Sudeste 0 -- -- 64
2017-09-17 01:00:00 16.1 3 Noroeste 12 Oeste 0 -- -- 58
2017-09-17 00:00:00 17.1 6 Sudoeste 16 Oeste 0 -- -- 51
2017-09-16 23:00:00 18.4 10 Oeste 15 Oeste 0 -- -- 47
2017-09-16 22:00:00 19.7 8 Sudoeste 14 Oeste 0 -- -- 36
2017-09-16 21:00:00 21.3 9 Sudoeste 18 Sudoeste 0 -- -- 31
2017-09-16 20:00:00 24.4 10 Oeste 22 Oeste 0 -- -- 26
2017-09-16 19:00:00 26 14 Oeste 27 Oeste 0 -- -- 23
2017-09-16 18:00:00 26.4 18 Oeste 29 Sudoeste 0 -- -- 21
2017-09-16 17:00:00 26.6 14 Oeste 32 Oeste 0 -- -- 22
2017-09-16 16:00:00 25.9 18 Oeste 33 Oeste 0 -- -- 23
2017-09-16 15:00:00 25 23 Oeste 34 Oeste 0 -- -- 27
2017-09-16 14:00:00 24 12 Sudoeste 29 Oeste 0 -- -- 32
2017-09-16 13:00:00 22 13 Oeste 26 Sudoeste 0 -- -- 37
2017-09-16 12:00:00 20.3 15 Sudoeste 22 Sudoeste 0 -- -- 41
2017-09-16 11:00:00 18.7 12 Oeste 18 Oeste 0 -- -- 46
2017-09-16 10:00:00 17.2 8 Sudoeste 14 Sudoeste 0 -- -- 47
2017-09-16 09:00:00 13.9 0 Calma 5 Sudeste 0 -- -- 63
2017-09-16 08:00:00 11.3 0 Calma 12 Sudeste 0 -- -- 68
2017-09-16 07:00:00 11.7 9 Sudeste 12 Sudeste 0 -- -- 68
2017-09-16 06:00:00 12.9 9 Sudeste 13 Sudeste 0 -- -- 65
2017-09-16 05:00:00 12 0 Calma 5 Sudeste 0 -- -- 68
2017-09-16 04:00:00 12.4 2 Sur 6 Sudeste 0 -- -- 65
2017-09-16 03:00:00 13.6 6 Sudeste 10 Este 0 -- -- 62
2017-09-16 02:00:00 15.2 7 Sudeste 11 Sudeste 0 -- -- 58
2017-09-16 01:00:00 16.5 3 Sudeste 15 Oeste 0 -- -- 55
2017-09-16 00:00:00 18.1 10 Oeste 24 Sudoeste 0 -- -- 53
2017-09-15 23:00:00 19.6 13 Sudoeste 30 Oeste 0 -- -- 46
2017-09-15 22:00:00 20.5 10 Oeste 21 Oeste 0 -- -- 41
2017-09-15 21:00:00 22 8 Sudoeste 31 Sudoeste 0 -- -- 32
2017-09-15 20:00:00 24.9 19 Sudoeste 34 Oeste 0 -- -- 28
2017-09-15 19:00:00 27.1 19 Sudoeste 33 Sudoeste 0 -- -- 25
2017-09-15 18:00:00 27.6 22 Sudoeste 35 Sudoeste 0 -- -- 27
2017-09-15 17:00:00 27.7 20 Sudoeste 37 Sudoeste 0 -- -- 26
2017-09-15 16:00:00 27.3 22 Sudoeste 39 Oeste 0 -- -- 23
2017-09-15 15:00:00 26.5 22 Oeste 34 Oeste 0 -- -- 25
2017-09-15 14:00:00 25.9 20 Sudoeste 33 Sudoeste 0 -- -- 25
2017-09-15 13:00:00 24.6 18 Sudoeste 34 Oeste 0 -- -- 31
2017-09-15 12:00:00 23.3 17 Oeste 27 Oeste 0 -- -- 47
2017-09-15 11:00:00 21.7 15 Sudoeste 24 Sudoeste 0 -- -- 53
2017-09-15 10:00:00 20.5 13 Sudoeste 22 Sudoeste 0 -- -- 64
2017-09-15 09:00:00 17.8 0 Calma 9 Este 0 -- -- 67
2017-09-15 08:00:00 17.3 9 Sudeste 14 Sudeste 0 -- -- 68
2017-09-15 07:00:00 17.3 10 Sudeste 13 Sudeste 0 -- -- 67
2017-09-15 06:00:00 17 5 Sudeste 9 Sudeste 0 -- -- 67
2017-09-15 05:00:00 18.2 4 Sudoeste 6 Sudoeste 0 -- -- 63
2017-09-15 04:00:00 17 3 Nordeste 6 Sur 0 -- -- 60
2017-09-15 03:00:00 18.3 3 Sur 6 Sudeste 0 -- -- 56
2017-09-15 02:00:00 19 5 Sudeste 6 Sudeste 0 -- -- 51
2017-09-15 01:00:00 20.3 0 Calma 10 Sudoeste 0 -- -- 45
2017-09-15 00:00:00 21.5 4 Sudoeste 8 Sudoeste 0 -- -- 39
2017-09-14 23:00:00 22.3 2 Sudoeste 6 Sudoeste 0 -- -- 43
2017-09-14 22:00:00 24.2 3 Sudeste 8 Sudoeste 0 -- -- 37
2017-09-14 21:00:00 26.3 4 Oeste 28 Sudoeste 0 -- -- 33
2017-09-14 20:00:00 28.2 18 Sudoeste 30 Oeste 0 -- -- 31
2017-09-14 19:00:00 30.2 18 Oeste 25 Sudoeste 0 -- -- 29
2017-09-14 18:00:00 32.7 15 Oeste 27 Oeste 0 -- -- 25
2017-09-14 17:00:00 32.3 15 Oeste 24 Oeste 0 -- -- 27
2017-09-14 16:00:00 32.1 15 Sudoeste 27 Sudoeste 0 -- -- 28
2017-09-14 15:00:00 31 12 Sudoeste 28 Sur 0 -- -- 34
2017-09-14 14:00:00 29.8 13 Oeste 22 Oeste 0 -- -- 37
2017-09-14 13:00:00 28.2 11 Oeste 19 Oeste 0 -- -- 43
2017-09-14 12:00:00 27 8 Oeste 21 Sudoeste 0 -- -- 45
2017-09-14 11:00:00 25.6 6 Oeste 11 Sudoeste 0 -- -- 45
2017-09-14 10:00:00 23.7 3 Nordeste 12 Sudeste 0 -- -- 51
2017-09-14 09:00:00 20.2 9 Sudeste 16 Sudeste 0 -- -- 63
2017-09-14 08:00:00 17.6 7 Sudeste 12 Sudeste 0 -- -- 84
2017-09-14 07:00:00 17.5 4 Este 13 Sudeste 0 -- -- 85
2017-09-14 06:00:00 18.7 10 Sudeste 12 Sudeste 0 -- -- 83
2017-09-14 05:00:00 19.2 9 Sudeste 12 Sudeste 0 -- -- 81
2017-09-14 04:00:00 20.1 6 Sudoeste 12 Sur 0 -- -- 79
2017-09-14 03:00:00 21 7 Sur 12 Sur 0 -- -- 73
2017-09-14 02:00:00 21.5 6 Sur 16 Sur 0 -- -- 62
2017-09-14 01:00:00 22.9 11 Sudeste 20 Sudeste 0 -- -- 46
2017-09-14 00:00:00 23.4 13 Sudeste 21 Sudeste 0 -- -- 44
2017-09-13 23:00:00 24.6 17 Sudeste 34 Sudeste 0 -- -- 41
2017-09-13 22:00:00 26 20 Sudeste 31 Sur 0 -- -- 38
2017-09-13 21:00:00 27.5 18 Sudeste 29 Sur 0 -- -- 33
2017-09-13 20:00:00 30.3 15 Sur 27 Sudeste 0 -- -- 27
2017-09-13 19:00:00 32.9 15 Sur 21 Sur 0 -- -- 23
2017-09-13 18:00:00 34.1 14 Sur 18 Sur 0 -- -- 23
2017-09-13 17:00:00 34.5 13 Sur 19 Sur 0 -- -- 22
2017-09-13 16:00:00 34.1 13 Sur 22 Sudoeste 0 -- -- 22
2017-09-13 15:00:00 33.6 15 Sur 24 Sudoeste 0 -- -- 27
2017-09-13 14:00:00 32.7 14 Sur 22 Sur 0 -- -- 29
2017-09-13 13:00:00 30.7 12 Sur 25 Sur 0 -- -- 36
2017-09-13 12:00:00 29.2 14 Sur 24 Sur 0 -- -- 33
2017-09-13 11:00:00 27.1 8 Sudeste 19 Sudeste 0 -- -- 38
2017-09-13 10:00:00 24.1 13 Sudeste 20 Sudeste 0 -- -- 45
2017-09-13 09:00:00 21.5 7 Sudeste 19 Sudeste 0 -- -- 57
2017-09-13 08:00:00 19.2 13 Sudeste 24 Sudeste 0 -- -- 69
2017-09-13 07:00:00 19.2 16 Sudeste 23 Sudeste 0 -- -- 66
2017-09-13 06:00:00 19.4 16 Sudeste 23 Sudeste 0 -- -- 62
2017-09-13 05:00:00 20.1 10 Sudeste 22 Sudeste 0 -- -- 63
2017-09-13 04:00:00 21 14 Sudeste 30 Sudeste 0 -- -- 56
2017-09-13 03:00:00 20.7 15 Sudeste 23 Sudeste 0 -- -- 39
2017-09-13 02:00:00 21 4 Este 17 Sudeste 0 -- -- 32
2017-09-13 01:00:00 21 4 Sudeste 8 Nordeste 0 -- -- 32
2017-09-13 00:00:00 22.2 5 Este 10 Este 0 -- -- 31
2017-09-12 23:00:00 23.7 7 Este 9 Este 0 -- -- 29
2017-09-12 22:00:00 25.3 4 Este 13 Noroeste 0 -- -- 27
2017-09-12 21:00:00 28.6 7 Noroeste 16 Noroeste 0 -- -- 23
2017-09-12 20:00:00 32.9 12 Oeste 18 Oeste 0 -- -- 19
2017-09-12 19:00:00 34.6 10 Noroeste 18 Oeste 0 -- -- 18
2017-09-12 18:00:00 35.1 11 Oeste 16 Oeste 0 -- -- 18
2017-09-12 17:00:00 35 10 Sudoeste 14 Sudoeste 0 -- -- 18
2017-09-12 16:00:00 33.6 6 Noroeste 17 Noroeste 0 -- -- 18
2017-09-12 15:00:00 32.6 6 Oeste 16 Noroeste 0 -- -- 22
2017-09-12 14:00:00 31.4 8 Noroeste 18 Noroeste 0 -- -- 25
2017-09-12 13:00:00 30.2 8 Noroeste 18 Noroeste 0 -- -- 26
2017-09-12 12:00:00 28.3 9 Norte 17 Nordeste 0 -- -- 29
2017-09-12 11:00:00 26.6 5 Noroeste 10 Noroeste 0 -- -- 34
2017-09-12 10:00:00 23.8 0 Calma 4 Noroeste 0 -- -- 45
2017-09-12 09:00:00 19.9 3 Este 10 Sudeste 0 -- -- 49
2017-09-12 08:00:00 15 3 Sudeste 9 Este 0 -- -- 56
2017-09-12 07:00:00 15.7 3 Este 10 Este 0 -- -- 53
2017-09-12 06:00:00 17 5 Sudeste 9 Sudeste 0 -- -- 55
2017-09-12 05:00:00 17.8 4 Sudeste 13 Sudeste 0 -- -- 47
2017-09-12 04:00:00 17.9 4 Este 9 Este 0 -- -- 47
2017-09-12 03:00:00 19.3 6 Sudeste 10 Oeste 0 -- -- 48
2017-09-12 02:00:00 20.1 11 Sudeste 14 Sudeste 0 -- -- 40
2017-09-12 01:00:00 20.2 0 Calma 9 Sudeste 0 -- -- 44
2017-09-12 00:00:00 20.7 6 Este 11 Este 0 -- -- 38
2017-09-11 23:00:00 22 0 Calma 6 Sudeste 0 -- -- 37
2017-09-11 22:00:00 24 0 Calma 5 Este 0 -- -- 33
2017-09-11 21:00:00 28.7 5 Sudoeste 8 Sudoeste 0 -- -- 25
2017-09-11 20:00:00 33.3 5 Sudoeste 12 Oeste 0 -- -- 19
2017-09-11 19:00:00 34.3 6 Sudoeste 11 Noroeste 0 -- -- 18
2017-09-11 18:00:00 33.3 3 Norte 15 Sudoeste 0 -- -- 21
2017-09-11 17:00:00 33.2 7 Norte 14 Sudoeste 0 -- -- 21
2017-09-11 16:00:00 32.6 6 Noroeste 14 Noroeste 0 -- -- 19
2017-09-11 15:00:00 31.6 4 Norte 14 Oeste 0 -- -- 20
2017-09-11 14:00:00 30.4 5 Norte 13 Sudoeste 0 -- -- 22
2017-09-11 13:00:00 28.4 7 Noroeste 11 Oeste 0 -- -- 25
2017-09-11 12:00:00 26.9 5 Sudeste 10 Sudoeste 0 -- -- 29
2017-09-11 11:00:00 24.1 5 Sur 9 Sudoeste 0 -- -- 35
2017-09-11 10:00:00 22.1 2 Noroeste 6 Oeste 0 -- -- 43
2017-09-11 09:00:00 16.6 3 Este 9 Este 0 -- -- 53
2017-09-11 08:00:00 13.3 4 Sudeste 10 Este 0 -- -- 60
2017-09-11 07:00:00 13.7 4 Este 9 Este 0 -- -- 57
2017-09-11 06:00:00 14.1 4 Este 9 Este 0 -- -- 55
2017-09-11 05:00:00 15.3 5 Sudeste 10 Sudeste 0 -- -- 51
2017-09-11 04:00:00 15.4 5 Este 9 Este 0 -- -- 51
2017-09-11 03:00:00 17.4 4 Sudeste 15 Sudeste 0 -- -- 44
2017-09-11 02:00:00 18 5 Sudoeste 14 Oeste 0 -- -- 47
2017-09-11 01:00:00 17.1 5 Este 12 Sudeste 0 -- -- 46
2017-09-11 00:00:00 18.4 8 Este 12 Sudeste 0 -- -- 42
2017-09-10 23:00:00 18.3 0 Calma 6 Sudeste 0 -- -- 43
2017-09-10 22:00:00 20 0 Calma 4 Este 0 -- -- 40
2017-09-10 21:00:00 23.8 3 Sudoeste 10 Sudoeste 0 -- -- 31
2017-09-10 20:00:00 27.9 4 Oeste 13 Oeste 0 -- -- 25
2017-09-10 19:00:00 27.9 6 Norte 21 Oeste 0 -- -- 25
2017-09-10 18:00:00 27.8 10 Norte 23 Noroeste 0 -- -- 24
2017-09-10 17:00:00 27.3 13 Norte 22 Norte 0 -- -- 25
2017-09-10 16:00:00 27.1 9 Noroeste 28 Noroeste 0 -- -- 26
2017-09-10 15:00:00 26.2 13 Oeste 25 Noroeste 0 -- -- 29
2017-09-10 14:00:00 24.5 7 Noroeste 15 Norte 0 -- -- 34
2017-09-10 13:00:00 22.6 5 Nordeste 13 Nordeste 0 -- -- 39
2017-09-10 12:00:00 20.9 4 Noroeste 11 Sudoeste 0 -- -- 44
2017-09-10 11:00:00 18.8 3 Noroeste 8 Oeste 0 -- -- 51
2017-09-10 10:00:00 16.3 5 Oeste 10 Oeste 0 -- -- 59
2017-09-10 09:00:00 14.2 4 Sudoeste 8 Sudoeste 0 -- -- 66
2017-09-10 08:00:00 11.4 3 Sur 9 Sudeste 0 -- -- 74
2017-09-10 07:00:00 12.6 3 Sur 5 Oeste 0 -- -- 69
2017-09-10 06:00:00 14.1 4 Sudoeste 12 Oeste 0 -- -- 64
2017-09-10 05:00:00 15.2 10 Oeste 14 Oeste 0 -- -- 63
2017-09-10 04:00:00 15.8 7 Sudoeste 14 Sudoeste 0 -- -- 58
2017-09-10 03:00:00 17.4 3 Sudoeste 13 Oeste 0 -- -- 52
2017-09-10 02:00:00 18.4 10 Oeste 22 Oeste 0 -- -- 51
2017-09-10 01:00:00 20.1 15 Oeste 23 Oeste 0 -- -- 47
2017-09-10 00:00:00 22.2 18 Oeste 24 Oeste 0 -- -- 43
2017-09-09 23:00:00 23.1 14 Oeste 25 Oeste 0 -- -- 44
2017-09-09 22:00:00 24.4 19 Oeste 38 Oeste 0 -- -- 41
2017-09-09 21:00:00 24.4 22 Sudoeste 44 Sudoeste 0 -- -- 50
2017-09-09 20:00:00 25.6 18 Sudoeste 37 Oeste 0 -- -- 46
2017-09-09 19:00:00 26.6 19 Sudoeste 39 Oeste 0 -- -- 38
2017-09-09 18:00:00 26.9 23 Sudoeste 38 Sudoeste 0 -- -- 37
2017-09-09 17:00:00 26.1 22 Sudoeste 33 Sudoeste 0 -- -- 34
2017-09-09 16:00:00 24.7 18 Oeste 28 Oeste 0 -- -- 41
2017-09-09 15:00:00 24.7 17 Sudoeste 29 Oeste 0 -- -- 36
2017-09-09 14:00:00 23.3 14 Oeste 24 Oeste 0 -- -- 37
2017-09-09 13:00:00 22.6 12 Sudoeste 22 Oeste 0 -- -- 38
2017-09-09 12:00:00 22.1 10 Sudoeste 18 Sudoeste 0 -- -- 40
2017-09-09 11:00:00 20.4 10 Sudoeste 22 Sudoeste 0 -- -- 51
2017-09-09 10:00:00 18.6 15 Oeste 23 Oeste 0 -- -- 64
2017-09-09 09:00:00 17.3 5 Sudoeste 8 Sudoeste 0 -- -- 69
2017-09-09 08:00:00 14.9 3 Sudoeste 9 Sudeste 0 -- -- 77
2017-09-09 07:00:00 16.5 9 Sudeste 11 Sudeste 0 -- -- 65
2017-09-09 06:00:00 16.3 4 Sur 7 Sur 0 -- -- 67
2017-09-09 05:00:00 16.7 2 Nordeste 9 Este 0 -- -- 60
2017-09-09 04:00:00 18.5 4 Sudeste 9 Sudeste 0 -- -- 56
2017-09-09 03:00:00 20 5 Sudeste 9 Sudeste 0 -- -- 52
2017-09-09 02:00:00 21.6 5 Sudeste 11 Sudeste 0 -- -- 47
2017-09-09 01:00:00 23 2 Sudeste 16 Sudoeste 0 -- -- 43
2017-09-09 00:00:00 24.4 9 Sudoeste 20 Sudoeste 0 -- -- 44
2017-09-08 23:00:00 25.8 5 Oeste 15 Sudoeste 0 -- -- 36
2017-09-08 22:00:00 27.8 10 Sudoeste 20 Sudoeste 0 -- -- 32
2017-09-08 21:00:00 29.4 11 Sudoeste 18 Sudoeste 0 -- -- 24
2017-09-08 20:00:00 32.6 11 Sudoeste 21 Sudoeste 0 -- -- 19
2017-09-08 19:00:00 34.5 14 Sudoeste 18 Sudoeste 0 -- -- 21
2017-09-08 18:00:00 35.1 14 Oeste 18 Oeste 0 -- -- 23
2017-09-08 17:00:00 35 12 Oeste 17 Oeste 0 -- -- 25
2017-09-08 16:00:00 34.2 9 Oeste 15 Oeste 0 -- -- 27
2017-09-08 15:00:00 33.2 11 Oeste 18 Sudoeste 0 -- -- 33
2017-09-08 14:00:00 31.9 10 Sudoeste 17 Sudoeste 0 -- -- 34
2017-09-08 13:00:00 30.1 6 Sudoeste 14 Oeste 0 -- -- 39
2017-09-08 12:00:00 28.4 5 Sur 13 Sur 0 -- -- 42
2017-09-08 11:00:00 26.5 8 Sur 15 Sur 0 -- -- 46
2017-09-08 10:00:00 24.4 10 Sur 17 Sudeste 0 -- -- 52
2017-09-08 09:00:00 21.8 10 Sudeste 22 Sudeste 0 -- -- 61
2017-09-08 08:00:00 20.6 14 Sudeste 21 Sudeste 0 -- -- 66
2017-09-08 07:00:00 20.2 13 Sudeste 19 Sudeste 0 -- -- 71
2017-09-08 06:00:00 20.5 9 Sudeste 19 Sudeste 0 -- -- 72
2017-09-08 05:00:00 21.3 11 Sudeste 17 Sudeste 0 -- -- 69
2017-09-08 04:00:00 21.8 8 Sudeste 13 Sur 0 -- -- 69
2017-09-08 03:00:00 22.3 9 Sur 12 Sudeste 0 -- -- 66
2017-09-08 02:00:00 23.2 7 Sudeste 11 Sudeste 0 -- -- 61
2017-09-08 01:00:00 24.8 3 Sur 12 Sudoeste 0 -- -- 53
2017-09-08 00:00:00 26 6 Sudoeste 13 Sudoeste 0 -- -- 49
2017-09-07 23:00:00 26.8 6 Sur 16 Sur 0 -- -- 49
2017-09-07 22:00:00 27.9 12 Sur 19 Sur 0 -- -- 46
2017-09-07 21:00:00 29.7 10 Sudeste 17 Sur 0 -- -- 39
2017-09-07 20:00:00 33.5 9 Sur 13 Sur 0 -- -- 29
2017-09-07 19:00:00 35.2 8 Sudoeste 13 Sudoeste 0 -- -- 24
2017-09-07 18:00:00 35.7 8 Oeste 12 Noroeste 0 -- -- 24
2017-09-07 17:00:00 35.4 8 Noroeste 12 Sudoeste 0 -- -- 25
2017-09-07 16:00:00 35.1 6 Sudoeste 15 Sudoeste 0 -- -- 26
2017-09-07 15:00:00 33.8 9 Oeste 17 Oeste 0 -- -- 28
2017-09-07 14:00:00 32.6 10 Oeste 16 Oeste 0 -- -- 31
2017-09-07 13:00:00 31.3 8 Sur 15 Sur 0 -- -- 31
2017-09-07 12:00:00 29.6 6 Sudoeste 17 Sur 0 -- -- 34
2017-09-07 11:00:00 27.9 9 Sudeste 21 Sudeste 0 -- -- 37
2017-09-07 10:00:00 25.4 14 Sudeste 23 Sudeste 0 -- -- 43
2017-09-07 09:00:00 23 13 Sudeste 20 Sudeste 0 -- -- 50
2017-09-07 08:00:00 21.8 14 Sudeste 20 Sudeste 0 -- -- 53
2017-09-07 07:00:00 22.6 14 Sudeste 26 Sudeste 0 -- -- 52
2017-09-07 06:00:00 22.9 17 Sudeste 24 Sudeste 0 -- -- 50
2017-09-07 05:00:00 23.2 16 Sudeste 23 Sudeste 0 -- -- 46
2017-09-07 04:00:00 23.2 14 Sudeste 22 Sudeste 0 -- -- 44
2017-09-07 03:00:00 24.1 13 Sudeste 24 Sudeste 0 -- -- 42
2017-09-07 02:00:00 24.2 15 Sudeste 22 Sudeste 0 -- -- 41
2017-09-07 01:00:00 24.7 14 Sudeste 24 Sudeste 0 -- -- 40
2017-09-07 00:00:00 25.4 13 Sudeste 23 Sudeste 0 -- -- 38
2017-09-06 23:00:00 26.5 16 Sur 31 Sudeste 0 -- -- 36
2017-09-06 22:00:00 27.9 20 Sudeste 30 Sudeste 0 -- -- 34
2017-09-06 21:00:00 30 16 Sudeste 23 Sudeste 0 -- -- 32
2017-09-06 20:00:00 34.4 10 Sur 16 Sur 0 -- -- 27
2017-09-06 19:00:00 36.2 8 Oeste 11 Oeste 0 -- -- 26
2017-09-06 18:00:00 36.5 5 Sudeste 11 Sudoeste 0 -- -- 24
2017-09-06 17:00:00 36.7 4 Noroeste 10 Oeste 0 -- -- 26
2017-09-06 16:00:00 36 9 Sur 12 Sudeste 0 -- -- 27
2017-09-06 15:00:00 35 5 Noroeste 12 Oeste 0 -- -- 29
2017-09-06 14:00:00 33.5 7 Noroeste 10 Oeste 0 -- -- 31
2017-09-06 13:00:00 32 7 Noroeste 11 Sur 0 -- -- 32
2017-09-06 12:00:00 31 7 Sudeste 14 Sudeste 0 -- -- 34
2017-09-06 11:00:00 28.7 7 Este 19 Sudeste 0 -- -- 43
2017-09-06 10:00:00 25.5 13 Sudeste 20 Sudeste 0 -- -- 52
2017-09-06 09:00:00 22.7 11 Sudeste 19 Sudeste 0 -- -- 69
2017-09-06 08:00:00 21 15 Sudeste 19 Sudeste 0 -- -- 74
2017-09-06 07:00:00 21 13 Sudeste 16 Sudeste 0 -- -- 73
2017-09-06 06:00:00 21.5 13 Sudeste 18 Sudeste 0 -- -- 72
2017-09-06 05:00:00 22.1 13 Sudeste 18 Sudeste 0 -- -- 70
2017-09-06 04:00:00 22.5 13 Sudeste 21 Sudeste 0 -- -- 69
2017-09-06 03:00:00 23.2 14 Sudeste 21 Sudeste 0 -- -- 64
2017-09-06 02:00:00 23.6 12 Sudeste 21 Sudeste 0 -- -- 60
2017-09-06 01:00:00 24.2 13 Sudeste 20 Sudeste 0 -- -- 57
2017-09-06 00:00:00 24.9 13 Sudeste 21 Sudeste 0 -- -- 56
2017-09-05 23:00:00 25.7 15 Sudeste 24 Sur 0 -- -- 55
2017-09-05 22:00:00 27 15 Sudeste 21 Sudeste 0 -- -- 50
2017-09-05 21:00:00 28.9 12 Sudeste 19 Sudeste 0 -- -- 44
2017-09-05 20:00:00 33.1 8 Sur 15 Sur 0 -- -- 32
2017-09-05 19:00:00 33.9 8 Sur 16 Sudoeste 0 -- -- 30
2017-09-05 18:00:00 34.1 11 Sudoeste 19 Sudoeste 0 -- -- 34
2017-09-05 17:00:00 33.9 10 Sudoeste 18 Sur 0 -- -- 38
2017-09-05 16:00:00 33.6 8 Sur 17 Sudeste 0 -- -- 38
2017-09-05 15:00:00 33.2 12 Sur 19 Sur 0 -- -- 37
2017-09-05 14:00:00 31.9 6 Sur 19 Sur 0 -- -- 39
2017-09-05 13:00:00 30.6 13 Sur 21 Sur 0 -- -- 42
2017-09-05 12:00:00 28.3 8 Sur 16 Sur 0 -- -- 51
2017-09-05 11:00:00 26.5 9 Sur 14 Sur 0 -- -- 59
2017-09-05 10:00:00 24.4 8 Sudeste 16 Sudeste 0 -- -- 62
2017-09-05 09:00:00 21.8 8 Sudeste 16 Este 0 -- -- 71
2017-09-05 08:00:00 18.9 10 Sudeste 13 Sudeste 0 -- -- 82
2017-09-05 07:00:00 18.8 5 Este 9 Sudeste 0 -- -- 83
2017-09-05 06:00:00 19 4 Sudeste 12 Este 0 -- -- 80
2017-09-05 05:00:00 19.1 5 Este 9 Este 0 -- -- 80
2017-09-05 04:00:00 19.2 3 Este 10 Sudeste 0 -- -- 80
2017-09-05 03:00:00 20.4 6 Sudeste 9 Sudeste 0 -- -- 76
2017-09-05 02:00:00 21.4 6 Este 8 Este 0 -- -- 71
2017-09-05 01:00:00 22.8 0 Calma 5 Oeste 0 -- -- 67
2017-09-05 00:00:00 24.2 3 Oeste 17 Oeste 0 -- -- 62
2017-09-04 23:00:00 25.3 10 Oeste 22 Sudoeste 0 -- -- 57
2017-09-04 22:00:00 26.7 7 Sudoeste 10 Sudoeste 0 -- -- 41
2017-09-04 21:00:00 28.9 5 Sudoeste 19 Oeste 0 -- -- 34
2017-09-04 20:00:00 32 11 Oeste 24 Oeste 0 -- -- 29
2017-09-04 19:00:00 33.1 14 Oeste 20 Oeste 0 -- -- 28
2017-09-04 18:00:00 33.3 10 Sudoeste 22 Sudoeste 0 -- -- 26
2017-09-04 17:00:00 32.7 11 Oeste 26 Oeste 0 -- -- 26
2017-09-04 16:00:00 32.4 13 Oeste 23 Oeste 0 -- -- 27
2017-09-04 15:00:00 31.3 14 Sudoeste 23 Sudoeste 0 -- -- 29
2017-09-04 14:00:00 29.6 8 Oeste 23 Oeste 0 -- -- 36
2017-09-04 13:00:00 27.8 11 Sudoeste 20 Oeste 0 -- -- 39
2017-09-04 12:00:00 26 9 Oeste 17 Sudoeste 0 -- -- 43
2017-09-04 11:00:00 24.2 8 Oeste 15 Oeste 0 -- -- 47
2017-09-04 10:00:00 23.3 8 Oeste 13 Oeste 0 -- -- 59
2017-09-04 09:00:00 20.1 2 Sudoeste 11 Sudeste 0 -- -- 81
2017-09-04 08:00:00 17.9 0 Calma 12 Sudeste 0 -- -- 82
2017-09-04 07:00:00 18.1 9 Sudeste 12 Sudeste 0 -- -- 81
2017-09-04 06:00:00 18.3 5 Sudeste 9 Sur 0 -- -- 80
2017-09-04 05:00:00 19.6 3 Sudeste 8 Sudoeste 0 -- -- 74
2017-09-04 04:00:00 21.5 6 Sudoeste 10 Sudoeste 0 -- -- 67
2017-09-04 03:00:00 22.1 4 Sur 8 Sur 0 -- -- 65
2017-09-04 02:00:00 23 0 Calma 14 Oeste 0 -- -- 63
2017-09-04 01:00:00 24.1 7 Sudoeste 23 Oeste 0 -- -- 62
2017-09-04 00:00:00 25.2 10 Sudoeste 19 Sudoeste 0 -- -- 59
2017-09-03 23:00:00 26 5 Oeste 17 Sudoeste 0 -- -- 54
2017-09-03 22:00:00 27.2 3 Sur 6 Sur 0 -- -- 50
2017-09-03 21:00:00 29.5 4 Sur 6 Sudoeste 0 -- -- 44
2017-09-03 20:00:00 32.1 2 Sudoeste 9 Oeste 0 -- -- 35
2017-09-03 19:00:00 31.6 4 Oeste 18 Oeste 0 -- -- 38
2017-09-03 18:00:00 31.9 10 Oeste 17 Oeste 0 -- -- 35
2017-09-03 17:00:00 33.6 5 Sudeste 15 Sudoeste 0 -- -- 35
2017-09-03 16:00:00 32.7 9 Oeste 26 Sudoeste 0 -- -- 37
2017-09-03 15:00:00 31.5 14 Sur 22 Sur 0 -- -- 42
2017-09-03 14:00:00 30.7 12 Sur 20 Sur 0 -- -- 45
2017-09-03 13:00:00 29.5 12 Sur 22 Sudeste 0 -- -- 44
2017-09-03 12:00:00 28.1 9 Sur 15 Sur 0 -- -- 50
2017-09-03 11:00:00 26.5 7 Sudeste 17 Sudeste 0 -- -- 58
2017-09-03 10:00:00 24.4 9 Sudeste 13 Sudeste 0 -- -- 68
2017-09-03 09:00:00 22 3 Este 7 Sudeste 0 -- -- 82
2017-09-03 08:00:00 19.5 7 Este 14 Sudeste 0 -- -- 90
2017-09-03 07:00:00 20.3 10 Sudeste 14 Sudeste 0 -- -- 89
2017-09-03 06:00:00 20.9 5 Sur 15 Sur 0 -- -- 86
2017-09-03 05:00:00 21.5 8 Sur 17 Sur 0 -- -- 84
2017-09-03 04:00:00 22 9 Sur 15 Sur 0 -- -- 81
2017-09-03 03:00:00 21.7 4 Sur 9 Sur 0 -- -- 81
2017-09-03 02:00:00 22.2 4 Norte 28 Sur 0 -- -- 76
2017-09-03 01:00:00 22.8 16 Sudeste 26 Sudeste 0 -- -- 72
2017-09-03 00:00:00 23.2 15 Sudeste 26 Sudeste 0 -- -- 70
2017-09-02 23:00:00 23.8 17 Sudeste 35 Sudeste 0 -- -- 68
2017-09-02 22:00:00 24.4 19 Sudeste 31 Sudeste 0 -- -- 66
2017-09-02 21:00:00 25.6 18 Sudeste 33 Sudeste 0 -- -- 61
2017-09-02 20:00:00 27.8 19 Sur 33 Sur 0 -- -- 53
2017-09-02 19:00:00 29.6 18 Sur 28 Sur 0 -- -- 48
2017-09-02 18:00:00 30.8 17 Sur 29 Sur 0 -- -- 46
2017-09-02 17:00:00 31.4 17 Sudoeste 26 Sudoeste 0 -- -- 46
2017-09-02 16:00:00 31.5 13 Sudoeste 21 Sudoeste 0 -- -- 46
2017-09-02 15:00:00 30.6 9 Sudeste 21 Sur 0 -- -- 47
2017-09-02 14:00:00 30 5 Sudeste 12 Oeste 0 -- -- 49
2017-09-02 13:00:00 29 3 Norte 15 Este 0 -- -- 53
2017-09-02 12:00:00 28.5 6 Sudeste 15 Este 0 -- -- 53
2017-09-02 11:00:00 27.3 7 Este 17 Sudeste 0 -- -- 58
2017-09-02 10:00:00 25.7 10 Sudeste 17 Sudeste 0 -- -- 64
2017-09-02 09:00:00 22.2 10 Sudeste 16 Sudeste 0 -- -- 76
2017-09-02 08:00:00 19.6 6 Este 13 Sudeste 0 -- -- 86
2017-09-02 07:00:00 20.1 8 Sudeste 13 Sudeste 0 -- -- 84
2017-09-02 06:00:00 20.1 8 Sudeste 14 Sudeste 0 -- -- 85
2017-09-02 05:00:00 20.3 5 Nordeste 10 Sudeste 0 -- -- 85
2017-09-02 04:00:00 21 8 Sudeste 11 Sudeste 0 -- -- 82
2017-09-02 03:00:00 22.3 5 Sur 12 Sur 0 -- -- 75
2017-09-02 02:00:00 22.8 8 Sur 17 Sur 0 -- -- 73
2017-09-02 01:00:00 23.5 12 Sur 24 Sur 0 -- -- 69
2017-09-02 00:00:00 23.8 14 Sur 25 Sur 0 -- -- 68
2017-09-01 23:00:00 24.4 16 Sudeste 28 Sur 0 -- -- 63
2017-09-01 22:00:00 25.3 20 Sudeste 29 Sudeste 0 -- -- 58
2017-09-01 21:00:00 26.7 18 Sur 28 Sur 0 -- -- 55
2017-09-01 20:00:00 29.3 15 Sur 27 Sur 0 -- -- 47
2017-09-01 19:00:00 32.2 14 Sur 22 Sur 0 -- -- 40
2017-09-01 18:00:00 33.5 7 Sudoeste 17 Sudoeste 0 -- -- 33
2017-09-01 17:00:00 33.1 5 Norte 14 Oeste 0 -- -- 35
2017-09-01 16:00:00 32.8 9 Oeste 17 Oeste 0 -- -- 36
2017-09-01 15:00:00 32.3 5 Sur 15 Oeste 0 -- -- 39
2017-09-01 14:00:00 30.2 4 Nordeste 13 Noroeste 0 -- -- 43
2017-09-01 13:00:00 29.2 6 Sur 15 Sudoeste 0 -- -- 46
2017-09-01 12:00:00 27.8 5 Sur 13 Sur 0 -- -- 53
2017-09-01 11:00:00 26.4 7 Sur 18 Sudeste 0 -- -- 57
2017-09-01 10:00:00 24.2 13 Sudeste 18 Sudeste 0 -- -- 64
2017-09-01 09:00:00 21.6 12 Sudeste 20 Sudeste 0 -- -- 74
2017-09-01 08:00:00 20 14 Sudeste 19 Sudeste 0 -- -- 79
2017-09-01 07:00:00 20 14 Sudeste 18 Sudeste 0 -- -- 80
2017-09-01 06:00:00 20.5 12 Sudeste 20 Sudeste 0 -- -- 78
2017-09-01 05:00:00 21.4 15 Sudeste 22 Sudeste 0 -- -- 73
2017-09-01 04:00:00 21.7 13 Sudeste 23 Sudeste 0 -- -- 70
2017-09-01 03:00:00 21.9 14 Sudeste 19 Sudeste 0 -- -- 71
2017-09-01 02:00:00 22.3 8 Sudeste 24 Sudeste 0 -- -- 71
2017-09-01 01:00:00 23 16 Sudeste 26 Sudeste 0 -- -- 68
2017-09-01 00:00:00 23.5 16 Sudeste 26 Sudeste 0 -- -- 62
2017-08-31 23:00:00 24.1 13 Sudeste 22 Sur 0 -- -- 61
2017-08-31 22:00:00 25.5 12 Sudeste 19 Sudeste 0 -- -- 57
2017-08-31 21:00:00 28.1 6 Sur 11 Sur 0 -- -- 51
2017-08-31 20:00:00 31.3 5 Noroeste 10 Oeste 0 -- -- 41
2017-08-31 19:00:00 32.2 5 Oeste 10 Oeste 0 -- -- 37
2017-08-31 18:00:00 31.8 7 Noroeste 13 Oeste 0 -- -- 37
2017-08-31 17:00:00 31 5 Este 14 Noroeste 0 -- -- 38
2017-08-31 16:00:00 31.5 4 Norte 17 Noroeste 0 -- -- 38
2017-08-31 15:00:00 30.2 5 Sudoeste 16 Norte 0 -- -- 41
2017-08-31 14:00:00 29.5 6 Noroeste 36 Nordeste 0 -- -- 43
2017-08-31 13:00:00 28.1 9 Norte 18 Noroeste 0 -- -- 51
2017-08-31 12:00:00 25.6 6 Norte 13 Norte 0 -- -- 61
2017-08-31 11:00:00 24 6 Norte 12 Norte 0 -- -- 65
2017-08-31 10:00:00 22.5 5 Norte 10 Norte 0 -- -- 74
2017-08-31 09:00:00 19.7 0 Calma 9 Este 0 -- -- 86
2017-08-31 08:00:00 18 6 Sudeste 12 Sudeste 0 -- -- 89
2017-08-31 07:00:00 18.4 3 Este 9 Sudeste 0 -- -- 89
2017-08-31 06:00:00 18.5 5 Sudeste 10 Este 0 -- -- 88
2017-08-31 05:00:00 18.6 6 Sudeste 12 Este 0 -- -- 90
2017-08-31 04:00:00 18.1 0 Calma 12 Sudeste 0 -- -- 89
2017-08-31 03:00:00 18.9 10 Sudeste 13 Sudeste 0 -- -- 85
2017-08-31 02:00:00 19.1 3 Sudeste 15 Sudeste 0 -- -- 84
2017-08-31 01:00:00 19.7 13 Sudeste 18 Sudeste 0 -- -- 83
2017-08-31 00:00:00 20.1 13 Sudeste 19 Sudeste 0 -- -- 80
2017-08-30 23:00:00 20.7 12 Sudeste 23 Sudeste 0 -- -- 79
2017-08-30 22:00:00 21.3 14 Sudeste 23 Sur 0 -- -- 76
2017-08-30 21:00:00 22.6 13 Sur 23 Sur 0 -- -- 71
2017-08-30 20:00:00 25.8 14 Sur 23 Sur 0 -- -- 60
2017-08-30 19:00:00 27.4 8 Oeste 14 Sudoeste 0 -- -- 46
2017-08-30 18:00:00 27.8 8 Oeste 16 Oeste 0 -- -- 46
2017-08-30 17:00:00 27.6 8 Oeste 14 Oeste 0 -- -- 48
2017-08-30 16:00:00 27.3 5 Noroeste 17 Norte 0 -- -- 48
2017-08-30 15:00:00 26.1 6 Noroeste 10 Noroeste 0 -- -- 53
2017-08-30 14:00:00 24.9 7 Noroeste 13 Noroeste 0 -- -- 57
2017-08-30 13:00:00 23.5 6 Noroeste 12 Noroeste 0 -- -- 66
2017-08-30 12:00:00 22.5 6 Norte 12 Noroeste 0 -- -- 76
2017-08-30 11:00:00 20.2 4 Norte 9 Norte 0 -- -- 87
2017-08-30 10:00:00 19.6 5 Norte 9 Norte 0 -- -- 88
2017-08-30 09:00:00 17.9 0 Calma 6 Este 0 -- -- 96
2017-08-30 08:00:00 17.4 3 Nordeste 6 Nordeste 0 -- -- 95
2017-08-30 07:00:00 17.8 0 Calma 4 Sudeste 0 -- -- 95
2017-08-30 06:00:00 17.5 0 Calma 9 Sudeste 0 -- -- 95
2017-08-30 05:00:00 17.5 6 Sudeste 10 Sudeste 0 -- -- 95
2017-08-30 04:00:00 17.7 3 Sudeste 12 Sudeste 0 -- -- 93
2017-08-30 03:00:00 18 6 Sudeste 10 Sudeste 0 -- -- 93
2017-08-30 02:00:00 18.1 8 Sudeste 11 Sudeste 0 -- -- 94
2017-08-30 01:00:00 17.9 8 Sudeste 15 Sudeste 0 -- -- 93
2017-08-30 00:00:00 18.1 11 Sudeste 15 Sudeste 0 -- -- 93
2017-08-29 23:00:00 18.5 11 Sudeste 21 Este 0 -- -- 92
2017-08-29 22:00:00 18.5 16 Sudeste 23 Este 4.6 -- -- 92
2017-08-29 21:00:00 18.1 3 Sudeste 27 Oeste 2.6 -- -- 93
2017-08-29 20:00:00 18.2 9 Oeste 44 Sudoeste 1.2 -- -- 90
2017-08-29 19:00:00 24 0 Calma 8 Sur 0 -- -- 58
2017-08-29 18:00:00 25.1 3 Oeste 11 Oeste 0 -- -- 51
2017-08-29 17:00:00 25.8 5 Noroeste 17 Oeste 0 -- -- 51
2017-08-29 16:00:00 25 9 Oeste 24 Sudoeste 0 -- -- 57
2017-08-29 15:00:00 24.3 9 Oeste 17 Oeste 0 -- -- 59
2017-08-29 14:00:00 22.5 4 Oeste 15 Oeste 0 -- -- 68
2017-08-29 13:00:00 21.7 7 Noroeste 16 Oeste 0 -- -- 71
2017-08-29 12:00:00 21 9 Noroeste 16 Oeste 0 -- -- 72
2017-08-29 11:00:00 21.2 4 Norte 11 Noroeste 0 -- -- 71
2017-08-29 10:00:00 20.4 3 Noroeste 6 Norte 0 -- -- 73
2017-08-29 09:00:00 19.8 0 Calma 16 Este 0 -- -- 81
2017-08-29 08:00:00 16.6 9 Este 14 Este 0 -- -- 95
2017-08-29 07:00:00 16.6 6 Sudeste 7 Sudeste 0 -- -- 92
2017-08-29 06:00:00 17.6 0 Calma 8 Oeste 0 -- -- 88
2017-08-29 05:00:00 17.9 4 Oeste 9 Oeste 0 -- -- 88
2017-08-29 04:00:00 17.7 0 Calma 5 Sudoeste 0 -- -- 92
2017-08-29 03:00:00 17.9 3 Sudoeste 10 Sudoeste 0 -- -- 89
2017-08-29 02:00:00 18.5 4 Oeste 16 Oeste 0 -- -- 87
2017-08-29 01:00:00 18.9 10 Sudoeste 22 Oeste 0 -- -- 87
2017-08-29 00:00:00 19.4 8 Oeste 24 Oeste 0 -- -- 83
2017-08-28 23:00:00 20.7 13 Sudoeste 21 Sudoeste 0 -- -- 79
2017-08-28 22:00:00 20.2 13 Sudeste 17 Sudeste 0 -- -- 86
2017-08-28 21:00:00 20.5 9 Este 19 Este 0 -- -- 85
2017-08-28 20:00:00 21.4 15 Este 22 Este 0 -- -- 80
2017-08-28 19:00:00 21.1 14 Este 23 Sudeste 0 -- -- 77
2017-08-28 18:00:00 21.1 8 Este 12 Este 0.4 -- -- 81
2017-08-28 17:00:00 20.3 3 Nordeste 5 Oeste 0 -- -- 85
2017-08-28 16:00:00 19.1 5 Este 13 Este 3.8 -- -- 91
2017-08-28 15:00:00 19 5 Nordeste 10 Nordeste 0.4 -- -- 89
2017-08-28 14:00:00 18.4 6 Nordeste 13 Este 3.2 -- -- 90
2017-08-28 13:00:00 18.6 5 Nordeste 11 Este 1.6 -- -- 93
2017-08-28 12:00:00 18.3 3 Noroeste 18 Sudoeste 7.8 -- -- 93
2017-08-28 11:00:00 19.7 9 Sudeste 22 Sudeste 4.4 -- -- 87
2017-08-28 10:00:00 21.1 2 Sur 6 Sudeste 0 -- -- 74
2017-08-28 09:00:00 20.3 3 Sudoeste 8 Sudoeste 0 -- -- 77
2017-08-28 08:00:00 20.2 3 Oeste 10 Oeste 0 -- -- 75
2017-08-28 07:00:00 20.2 6 Oeste 12 Oeste 0 -- -- 74
2017-08-28 06:00:00 20.1 5 Oeste 9 Oeste 0 -- -- 75
2017-08-28 05:00:00 19.4 4 Nordeste 8 Noroeste 0 -- -- 78
2017-08-28 04:00:00 20.2 5 Noroeste 20 Sudoeste 0 -- -- 75
2017-08-28 03:00:00 20.7 12 Oeste 25 Sudoeste 0 -- -- 71
2017-08-28 02:00:00 21.2 13 Sudoeste 26 Oeste 0 -- -- 70
2017-08-28 01:00:00 22.8 13 Oeste 20 Oeste 0 -- -- 68
2017-08-28 00:00:00 23.5 11 Sudoeste 28 Sudoeste 0 -- -- 68
2017-08-27 23:00:00 24.7 13 Sudoeste 21 Sudoeste 0 -- -- 70
2017-08-27 22:00:00 25.5 10 Sudoeste 23 Sur 0 -- -- 67
2017-08-27 21:00:00 27.4 14 Sur 30 Sur 0 -- -- 57
2017-08-27 20:00:00 30.1 10 Sur 22 Sur 0 -- -- 49
2017-08-27 19:00:00 30.6 12 Sur 17 Sur 0 -- -- 44
2017-08-27 18:00:00 30.7 6 Sur 21 Sudeste 0 -- -- 44
2017-08-27 17:00:00 29.4 17 Este 31 Este 0 -- -- 46
2017-08-27 16:00:00 27.4 16 Sudeste 31 Sudeste 0.2 -- -- 56
2017-08-27 15:00:00 22.6 19 Sudeste 46 Este 0.2 -- -- 72
2017-08-27 14:00:00 22.9 24 Este 41 Sudeste 0.4 -- -- 72
2017-08-27 13:00:00 25.4 4 Sur 13 Este 0 -- -- 70
2017-08-27 12:00:00 25.3 7 Este 10 Este 0.2 -- -- 70
2017-08-27 11:00:00 26.2 5 Sudeste 10 Norte 0 -- -- 65
2017-08-27 10:00:00 24.9 4 Este 22 Sur 0 -- -- 67
2017-08-27 09:00:00 26.2 14 Sur 24 Sudoeste 0 -- -- 58
2017-08-27 08:00:00 26.6 13 Sudoeste 23 Sudoeste 0 -- -- 49
2017-08-27 07:00:00 27.7 13 Sudeste 50 Este 0 -- -- 41
2017-08-27 06:00:00 27.2 20 Sudeste 37 Sudeste 0 -- -- 46
2017-08-27 05:00:00 27.5 21 Sudeste 32 Sudeste 0 -- -- 45
2017-08-27 04:00:00 27.2 8 Sur 17 Sudoeste 0 -- -- 51
2017-08-27 03:00:00 28.9 12 Sudoeste 30 Sudeste 0 -- -- 40
2017-08-27 02:00:00 29.7 17 Sudeste 32 Sur 0 -- -- 40
2017-08-27 01:00:00 29 18 Sudeste 36 Sudeste 0 -- -- 49
2017-08-27 00:00:00 30.1 18 Sudeste 35 Sudeste 0 -- -- 36
2017-08-26 23:00:00 30.2 15 Sudeste 24 Sudeste 0 -- -- 35
2017-08-26 22:00:00 30.9 16 Sudeste 25 Sur 0 -- -- 34
2017-08-26 21:00:00 32.4 5 Sur 21 Sur 0 -- -- 29
2017-08-26 20:00:00 33.9 12 Sur 19 Sur 0 -- -- 26
2017-08-26 19:00:00 34.9 12 Sudoeste 17 Sudoeste 0 -- -- 30
2017-08-26 18:00:00 36.2 8 Oeste 15 Sudoeste 0 -- -- 30
2017-08-26 17:00:00 36 5 Este 12 Este 0 -- -- 26
2017-08-26 16:00:00 35 8 Nordeste 13 Este 0 -- -- 27
2017-08-26 15:00:00 34.1 6 Nordeste 12 Noroeste 0 -- -- 28
2017-08-26 14:00:00 34.3 5 Norte 13 Noroeste 0 -- -- 29
2017-08-26 13:00:00 33.3 8 Oeste 21 Noroeste 0 -- -- 30
2017-08-26 12:00:00 33.2 6 Noroeste 15 Oeste 0 -- -- 30
2017-08-26 11:00:00 31.2 5 Noroeste 10 Sudeste 0 -- -- 34
2017-08-26 10:00:00 29.2 4 Sudeste 16 Este 0 -- -- 37
2017-08-26 09:00:00 25.9 8 Sudeste 18 Sudeste 0 -- -- 45
2017-08-26 08:00:00 24 13 Sudeste 26 Este 0 -- -- 47
2017-08-26 07:00:00 24.9 8 Sudeste 17 Sudeste 0 -- -- 44
2017-08-26 06:00:00 23.1 6 Sudoeste 10 Oeste 0 -- -- 51
2017-08-26 05:00:00 23.4 5 Este 13 Sudeste 0 -- -- 47
2017-08-26 04:00:00 24.7 6 Sudeste 10 Sudeste 0 -- -- 43
2017-08-26 03:00:00 26.4 9 Sudeste 13 Sudeste 0 -- -- 38
2017-08-26 02:00:00 27 8 Sudeste 17 Sur 0 -- -- 36
2017-08-26 01:00:00 28.1 12 Sudeste 17 Sudeste 0 -- -- 34
2017-08-26 00:00:00 28.8 12 Sudeste 17 Sudeste 0 -- -- 35